ABR102B EGJJ-EGBB
Flight info
| Callsign | ABR102B |
|---|---|
| Flight time | N/A |
| Altitude | 27000 |
| Route | BENIX G27 AKIKI UM189 EPATI UM184 KOTEM M184 HEMEL |
| Aircraft | B738/M-SDE2E3FGHIRWXY/LB1 |
Departure
| Time | 2026-05-06 17:59 |
|---|---|
| Airport | Jersey Airport (EGJJ) |
Arrival
| Time | N/A |
|---|---|
| Airport | Birmingham Airport (EGBB) |
| Time | Latitude | Longitude | Altitude | Speed | Heading |
|---|---|---|---|---|---|
| 2026-05-06 17:40 | 49.20456 | -2.19159 | 283 ft | 0 kts | 212° |
| 2026-05-06 17:50 | 49.20446 | -2.19168 | 288 ft | 3 kts | 212° |
| 2026-05-06 17:50 | 49.20420 | -2.19199 | 283 ft | 6 kts | 233° |
| 2026-05-06 17:51 | 49.20410 | -2.19273 | 283 ft | 9 kts | 262° |
| 2026-05-06 17:51 | 49.20400 | -2.19375 | 283 ft | 11 kts | 263° |
| 2026-05-06 17:51 | 49.20414 | -2.19496 | 283 ft | 11 kts | 285° |
| 2026-05-06 17:51 | 49.20434 | -2.19615 | 286 ft | 11 kts | 285° |
| 2026-05-06 17:52 | 49.20440 | -2.19734 | 283 ft | 13 kts | 265° |
| 2026-05-06 17:52 | 49.20433 | -2.19858 | 283 ft | 9 kts | 265° |
| 2026-05-06 17:52 | 49.20467 | -2.19920 | 283 ft | 9 kts | 352° |
| 2026-05-06 17:52 | 49.20517 | -2.19984 | 283 ft | 11 kts | 289° |
| 2026-05-06 17:53 | 49.20542 | -2.20110 | 283 ft | 13 kts | 287° |
| 2026-05-06 17:53 | 49.20567 | -2.20236 | 286 ft | 13 kts | 288° |
| 2026-05-06 17:53 | 49.20593 | -2.20371 | 283 ft | 10 kts | 286° |
| 2026-05-06 17:53 | 49.20609 | -2.20453 | 287 ft | 5 kts | 286° |
| 2026-05-06 17:54 | 49.20617 | -2.20495 | 283 ft | 1 kts | 284° |
| 2026-05-06 17:54 | 49.20617 | -2.20496 | 283 ft | 0 kts | 284° |
| 2026-05-06 17:55 | 49.20618 | -2.20506 | 283 ft | 2 kts | 283° |
| 2026-05-06 17:55 | 49.20623 | -2.20546 | 286 ft | 5 kts | 277° |
| 2026-05-06 17:55 | 49.20626 | -2.20615 | 283 ft | 7 kts | 274° |
| 2026-05-06 17:56 | 49.20640 | -2.20687 | 285 ft | 8 kts | 313° |
| 2026-05-06 17:56 | 49.20691 | -2.20692 | 283 ft | 7 kts | 33° |
| 2026-05-06 17:56 | 49.20707 | -2.20633 | 286 ft | 1 kts | 81° |
| 2026-05-06 17:56 | 49.20707 | -2.20631 | 285 ft | 0 kts | 82° |
| 2026-05-06 17:58 | 49.20711 | -2.20592 | 282 ft | 15 kts | 82° |
| 2026-05-06 17:58 | 49.20751 | -2.20122 | 282 ft | 71 kts | 83° |
| 2026-05-06 17:58 | 49.20832 | -2.19156 | 284 ft | 111 kts | 83° |
| 2026-05-06 17:58 | 49.20937 | -2.17892 | 473 ft | 118 kts | 82° |
| 2026-05-06 17:59 | 49.21024 | -2.16654 | 806 ft | 126 kts | 83° |
| 2026-05-06 17:59 | 49.21135 | -2.15175 | 1461 ft | 158 kts | 82° |
| 2026-05-06 17:59 | 49.21327 | -2.13466 | 2868 ft | 166 kts | 77° |
| 2026-05-06 17:59 | 49.21566 | -2.11734 | 4365 ft | 168 kts | 77° |
| 2026-05-06 18:00 | 49.21820 | -2.09877 | 5609 ft | 187 kts | 75° |
| 2026-05-06 18:00 | 49.22107 | -2.07899 | 6894 ft | 197 kts | 76° |
| 2026-05-06 18:00 | 49.22404 | -2.05815 | 8139 ft | 203 kts | 77° |
| 2026-05-06 18:00 | 49.22740 | -2.03672 | 9302 ft | 212 kts | 73° |
| 2026-05-06 18:01 | 49.23365 | -2.01564 | 9905 ft | 228 kts | 49° |
| 2026-05-06 18:01 | 49.24516 | -1.99788 | 10611 ft | 241 kts | 42° |
| 2026-05-06 18:01 | 49.25745 | -1.97992 | 11515 ft | 248 kts | 41° |
| 2026-05-06 18:01 | 49.27021 | -1.96166 | 12491 ft | 254 kts | 44° |
| 2026-05-06 18:02 | 49.28210 | -1.94141 | 13603 ft | 256 kts | 47° |
| 2026-05-06 18:02 | 49.29454 | -1.92029 | 13848 ft | 295 kts | 46° |
| 2026-05-06 18:02 | 49.30904 | -1.89648 | 14441 ft | 313 kts | 46° |
| 2026-05-06 18:02 | 49.32428 | -1.87122 | 14629 ft | 325 kts | 46° |
| 2026-05-06 18:03 | 49.34013 | -1.84460 | 14913 ft | 351 kts | 46° |
| 2026-05-06 18:03 | 49.35677 | -1.81631 | 15727 ft | 362 kts | 47° |
| 2026-05-06 18:03 | 49.37373 | -1.78734 | 16761 ft | 367 kts | 47° |
| 2026-05-06 18:03 | 49.39088 | -1.75797 | 17773 ft | 372 kts | 47° |
| 2026-05-06 18:04 | 49.40848 | -1.72783 | 18435 ft | 387 kts | 47° |
| 2026-05-06 18:04 | 49.42642 | -1.69707 | 19142 ft | 395 kts | 47° |
| 2026-05-06 18:04 | 49.44484 | -1.66545 | 19986 ft | 400 kts | 47° |
| 2026-05-06 18:04 | 49.46346 | -1.63345 | 20861 ft | 403 kts | 47° |
| 2026-05-06 18:05 | 49.48222 | -1.60117 | 21705 ft | 407 kts | 47° |
| 2026-05-06 18:05 | 49.50117 | -1.56854 | 22504 ft | 412 kts | 47° |
| 2026-05-06 18:05 | 49.52036 | -1.53547 | 23286 ft | 416 kts | 47° |
| 2026-05-06 18:05 | 49.53977 | -1.50199 | 23943 ft | 421 kts | 47° |
| 2026-05-06 18:06 | 49.55949 | -1.46839 | 24578 ft | 425 kts | 46° |
| 2026-05-06 18:06 | 49.57980 | -1.43512 | 25224 ft | 428 kts | 45° |
| 2026-05-06 18:06 | 49.60036 | -1.40176 | 25846 ft | 431 kts | 45° |
| 2026-05-06 18:06 | 49.62077 | -1.36844 | 26423 ft | 435 kts | 46° |
| 2026-05-06 18:07 | 49.64159 | -1.33421 | 26908 ft | 440 kts | 46° |
| 2026-05-06 18:07 | 49.66271 | -1.29936 | 26989 ft | 449 kts | 46° |
| 2026-05-06 18:07 | 49.67803 | -1.27403 | 26993 ft | 455 kts | 46° |
| 2026-05-06 18:07 | 49.68108 | -1.26899 | 26958 ft | 449 kts | 45° |
| 2026-05-06 18:08 | 49.68206 | -1.26736 | 26856 ft | 0 kts | 45° |